createdAt,value
2018-12-20T00:00:42.167Z,29.97
2018-12-20T00:03:10.327Z,28.53
2018-12-20T00:05:38.514Z,30.83
2018-12-20T00:08:06.797Z,29.30
2018-12-20T00:10:35.184Z,29.37
2018-12-20T00:13:03.391Z,27.73
2018-12-20T00:15:34.702Z,25.83
2018-12-20T00:18:03.896Z,27.87
2018-12-20T00:20:32.061Z,27.80
2018-12-20T00:23:00.751Z,27.63
2018-12-20T00:25:30.168Z,24.63
2018-12-20T00:28:00.332Z,27.83
2018-12-20T00:30:28.513Z,25.40
2018-12-20T00:32:57.746Z,25.07
2018-12-20T00:35:26.806Z,27.37
2018-12-20T00:37:55.065Z,23.97
2018-12-20T00:40:23.393Z,24.50
2018-12-20T00:42:51.698Z,26.00
2018-12-20T00:45:20.342Z,25.83
2018-12-20T00:47:50.676Z,26.27
2018-12-20T00:50:19.007Z,27.40
2018-12-20T00:52:47.232Z,24.30
2018-12-20T00:55:15.589Z,23.13
2018-12-20T00:57:43.831Z,24.63
2018-12-20T01:00:12.204Z,24.87
2018-12-20T01:02:41.357Z,24.53
2018-12-20T01:05:09.794Z,25.93
2018-12-20T01:07:38.030Z,25.67
2018-12-20T01:10:06.959Z,26.50
2018-12-20T01:12:35.203Z,25.90
2018-12-20T01:15:05.169Z,25.83
2018-12-20T01:17:38.709Z,26.40
2018-12-20T01:20:09.139Z,26.97
2018-12-20T01:22:37.644Z,28.87
2018-12-20T01:25:06.310Z,31.77
2018-12-20T01:27:35.496Z,32.67
2018-12-20T01:30:06.294Z,30.50
2018-12-20T01:32:34.691Z,32.30
2018-12-20T01:35:03.216Z,31.87
2018-12-20T01:37:31.588Z,33.30
2018-12-20T01:40:00.493Z,29.87
2018-12-20T01:42:29.057Z,35.27
2018-12-20T01:44:57.430Z,34.43
2018-12-20T01:47:26.478Z,34.57
2018-12-20T01:49:54.833Z,35.57
2018-12-20T01:52:23.030Z,33.83
2018-12-20T01:54:51.310Z,34.43
2018-12-20T01:57:19.623Z,33.50
2018-12-20T01:59:49.861Z,29.50
2018-12-20T02:02:18.234Z,31.77
2018-12-20T02:04:46.520Z,31.93
2018-12-20T02:07:15.006Z,29.00
2018-12-20T02:09:43.469Z,34.37
2018-12-20T02:12:11.722Z,29.90
2018-12-20T02:14:39.988Z,31.23
2018-12-20T02:17:08.584Z,27.00
2018-12-20T02:19:39.781Z,30.50
2018-12-20T02:22:08.035Z,31.87
2018-12-20T02:24:37.226Z,31.57
2018-12-20T02:27:05.584Z,31.03
2018-12-20T02:29:34.168Z,34.20
2018-12-20T02:32:02.489Z,32.90
2018-12-20T02:34:31.775Z,35.27
2018-12-20T02:36:59.977Z,31.63
2018-12-20T02:39:29.052Z,33.03
2018-12-20T02:41:57.364Z,27.57
2018-12-20T02:44:25.543Z,26.63
2018-12-20T02:46:53.774Z,31.33
2018-12-20T02:49:22.046Z,30.60
2018-12-20T02:51:50.507Z,30.30
2018-12-20T02:54:18.901Z,28.50
2018-12-20T02:56:47.319Z,30.47
2018-12-20T02:59:15.723Z,29.00
2018-12-20T03:01:45.282Z,27.97
2018-12-20T03:04:13.588Z,27.67
2018-12-20T03:06:41.750Z,29.17
2018-12-20T03:09:10.064Z,26.40
2018-12-20T03:11:39.193Z,28.00
2018-12-20T03:14:07.658Z,26.20
2018-12-20T03:16:35.916Z,28.93
2018-12-20T03:19:04.522Z,29.10
2018-12-20T03:21:33.424Z,27.80
2018-12-20T03:24:01.719Z,27.43
2018-12-20T03:26:29.904Z,29.10
2018-12-20T03:28:58.073Z,30.03
2018-12-20T03:31:27.297Z,31.60
2018-12-20T03:33:57.433Z,32.07
2018-12-20T03:36:25.803Z,33.33
2018-12-20T03:38:54.009Z,30.03
2018-12-20T03:41:22.214Z,28.97
2018-12-20T03:43:50.463Z,30.23
2018-12-20T03:46:18.653Z,28.77
2018-12-20T03:48:46.992Z,31.10
2018-12-20T03:51:15.216Z,27.13
2018-12-20T03:53:43.516Z,31.10
2018-12-20T03:56:18.582Z,31.37
2018-12-20T03:58:47.053Z,31.97
2018-12-20T04:01:15.770Z,30.57
2018-12-20T04:03:44.024Z,30.97
2018-12-20T04:06:12.339Z,32.13
2018-12-20T04:08:40.630Z,32.13
2018-12-20T04:11:08.813Z,32.57
2018-12-20T04:13:36.981Z,30.57
2018-12-20T04:16:05.536Z,30.20
2018-12-20T04:18:33.765Z,35.77
2018-12-20T04:21:02.166Z,35.50
2018-12-20T04:23:30.494Z,34.80
2018-12-20T04:25:58.632Z,33.33
2018-12-20T04:28:26.976Z,36.50
2018-12-20T04:30:55.159Z,36.07
2018-12-20T04:33:23.428Z,35.83
2018-12-20T04:35:51.976Z,34.77
2018-12-20T04:38:20.263Z,34.47
2018-12-20T04:40:48.518Z,35.43
2018-12-20T04:43:17.077Z,34.77
2018-12-20T04:45:46.820Z,35.53
2018-12-20T04:48:16.300Z,33.83
2018-12-20T04:50:44.729Z,33.77
2018-12-20T04:53:12.952Z,37.60
2018-12-20T04:55:41.122Z,35.10
2018-12-20T04:58:10.111Z,35.23
2018-12-20T05:00:40.559Z,36.00
2018-12-20T05:03:08.635Z,33.57
2018-12-20T05:05:37.017Z,33.90
2018-12-20T05:08:05.264Z,34.00
2018-12-20T05:10:33.420Z,35.07
2018-12-20T05:13:01.932Z,35.13
2018-12-20T05:15:30.251Z,32.67
2018-12-20T05:17:58.479Z,32.13
2018-12-20T05:20:26.770Z,31.47
2018-12-20T05:22:54.975Z,31.53
2018-12-20T05:25:23.245Z,29.97
2018-12-20T05:27:52.341Z,28.87
2018-12-20T05:30:20.773Z,27.33
2018-12-20T05:32:49.088Z,26.20
2018-12-20T05:35:17.263Z,26.27
2018-12-20T05:37:45.719Z,26.20
2018-12-20T05:40:14.199Z,27.33
2018-12-20T05:42:44.018Z,27.53
2018-12-20T05:45:12.645Z,25.03
2018-12-20T05:47:40.956Z,25.20
2018-12-20T05:50:09.392Z,23.87
2018-12-20T05:52:37.725Z,25.20
2018-12-20T05:55:07.034Z,25.73
2018-12-20T05:57:35.204Z,26.17
2018-12-20T06:00:04.113Z,24.97
2018-12-20T06:02:33.220Z,25.90
2018-12-20T06:05:03.740Z,27.13
2018-12-20T06:07:32.206Z,27.47
2018-12-20T06:10:00.528Z,30.13
2018-12-20T06:12:28.745Z,30.23
2018-12-20T06:14:57.059Z,30.07
2018-12-20T06:17:25.293Z,28.00
2018-12-20T06:19:53.730Z,26.87
2018-12-20T06:22:21.993Z,20.80
2018-12-20T06:24:50.176Z,18.50
2018-12-20T06:27:20.183Z,20.90
2018-12-20T06:29:48.357Z,24.27
2018-12-20T06:32:16.683Z,23.70
2018-12-20T06:34:44.891Z,22.03
2018-12-20T06:37:13.055Z,22.90
2018-12-20T06:39:42.248Z,22.53
2018-12-20T06:42:12.283Z,21.60
2018-12-20T06:44:47.572Z,22.33
2018-12-20T06:47:17.016Z,23.63
2018-12-20T06:49:45.187Z,23.27
2018-12-20T06:52:13.469Z,27.40
2018-12-20T06:54:41.696Z,26.07
2018-12-20T06:57:09.866Z,23.90
2018-12-20T06:59:38.048Z,22.23
2018-12-20T07:02:06.398Z,23.57
2018-12-20T07:04:34.527Z,23.67
2018-12-20T07:07:03.675Z,25.77
2018-12-20T07:09:31.922Z,24.57
2018-12-20T07:12:00.098Z,24.47
2018-12-20T07:14:28.268Z,24.80
2018-12-20T07:16:56.437Z,24.93
2018-12-20T07:19:24.696Z,24.33
2018-12-20T07:21:52.882Z,25.50
2018-12-20T07:24:21.125Z,25.47
2018-12-20T07:26:49.646Z,24.83
2018-12-20T07:29:17.821Z,24.00
2018-12-20T07:31:46.172Z,20.97
2018-12-20T07:34:16.205Z,21.70
2018-12-20T07:36:45.343Z,23.97
2018-12-20T07:39:14.017Z,22.20
2018-12-20T07:41:44.186Z,21.30
2018-12-20T07:44:13.208Z,21.43
2018-12-20T07:46:41.473Z,22.33
2018-12-20T07:49:09.941Z,19.10
2018-12-20T07:51:38.488Z,19.00
2018-12-20T07:54:06.623Z,17.10
2018-12-20T07:56:34.888Z,17.57
2018-12-20T07:59:03.117Z,19.00
2018-12-20T08:01:31.279Z,19.33
2018-12-20T08:03:59.435Z,19.30
2018-12-20T08:06:29.597Z,19.80
2018-12-20T08:08:57.969Z,20.37
2018-12-20T08:11:26.144Z,16.90
2018-12-20T08:13:54.322Z,19.97
2018-12-20T08:16:22.533Z,20.93
2018-12-20T08:18:51.830Z,20.80
2018-12-20T08:21:20.969Z,22.87
2018-12-20T08:23:49.132Z,21.80
2018-12-20T08:26:17.372Z,21.57
2018-12-20T08:28:45.531Z,21.53
2018-12-20T08:31:13.735Z,21.37
2018-12-20T08:33:41.999Z,19.37
2018-12-20T08:36:10.226Z,17.43
2018-12-20T08:38:38.468Z,18.63
2018-12-20T08:41:09.116Z,17.83
2018-12-20T08:43:37.941Z,13.97
2018-12-20T08:46:06.421Z,15.60
2018-12-20T08:48:34.865Z,14.97
2018-12-20T08:51:03.441Z,15.33
2018-12-20T08:53:31.624Z,16.30
2018-12-20T08:55:59.867Z,14.37
2018-12-20T08:58:28.045Z,14.40
2018-12-20T09:00:56.240Z,13.87
2018-12-20T09:03:24.405Z,12.63
2018-12-20T09:05:52.621Z,10.43
2018-12-20T09:08:20.758Z,10.30
2018-12-20T09:10:48.950Z,11.57
2018-12-20T09:13:17.124Z,12.13
2018-12-20T09:15:45.313Z,12.97
2018-12-20T09:18:13.510Z,12.07
2018-12-20T09:20:41.723Z,10.73
2018-12-20T09:23:09.908Z,11.93
2018-12-20T09:25:38.165Z,10.70
2018-12-20T09:28:06.345Z,11.33
2018-12-20T09:30:34.505Z,11.07
2018-12-20T09:33:03.034Z,12.27
2018-12-20T09:35:31.292Z,12.20
2018-12-20T09:38:01.116Z,12.23
2018-12-20T09:40:30.100Z,12.63
2018-12-20T09:42:58.263Z,12.23
2018-12-20T09:45:26.455Z,12.47
2018-12-20T09:47:58.867Z,12.63
2018-12-20T09:50:28.066Z,11.57
2018-12-20T09:52:56.877Z,12.13
2018-12-20T09:55:25.048Z,12.00
2018-12-20T09:57:53.289Z,12.30
2018-12-20T10:00:21.519Z,11.97
2018-12-20T10:02:50.542Z,12.50
2018-12-20T10:05:18.726Z,11.63
2018-12-20T10:07:47.488Z,10.63
2018-12-20T10:10:15.661Z,10.03
2018-12-20T10:12:44.217Z,10.77
2018-12-20T10:15:12.438Z,10.43
2018-12-20T10:17:40.699Z,10.50
2018-12-20T10:20:11.770Z,9.67
2018-12-20T10:22:39.936Z,9.67
2018-12-20T10:25:09.068Z,10.83
2018-12-20T10:27:37.280Z,10.70
2018-12-20T10:30:06.324Z,10.37
2018-12-20T10:32:34.944Z,10.50
2018-12-20T10:35:03.298Z,10.57
2018-12-20T10:37:31.536Z,10.17
2018-12-20T10:39:59.709Z,10.53
2018-12-20T10:42:27.885Z,10.80
2018-12-20T10:44:56.636Z,9.47
2018-12-20T10:47:29.244Z,10.33
2018-12-20T10:49:56.701Z,10.07
2018-12-20T10:52:24.857Z,8.70
2018-12-20T10:54:53.081Z,8.90
2018-12-20T10:57:21.240Z,9.40
2018-12-20T10:59:49.402Z,9.03
2018-12-20T11:02:23.125Z,9.30
2018-12-20T11:04:56.683Z,8.77
2018-12-20T11:07:31.247Z,9.37
2018-12-20T11:10:04.913Z,9.77
2018-12-20T11:12:38.692Z,8.87
2018-12-20T11:15:07.193Z,9.70
2018-12-20T11:17:37.493Z,9.63
2018-12-20T11:20:05.741Z,8.67
2018-12-20T11:22:34.190Z,8.63
2018-12-20T11:25:02.659Z,8.07
2018-12-20T11:27:30.893Z,8.90
2018-12-20T11:29:59.072Z,9.90
2018-12-20T11:32:27.303Z,9.67
2018-12-20T11:34:55.488Z,8.67
2018-12-20T11:37:23.634Z,11.03
2018-12-20T11:39:59.446Z,9.20
2018-12-20T11:42:22.907Z,7.70
2018-12-20T11:44:51.061Z,8.43
2018-12-20T11:47:24.577Z,7.60
2018-12-20T11:49:52.752Z,6.13
2018-12-20T11:52:20.960Z,5.33
2018-12-20T11:54:49.102Z,6.40
2018-12-20T11:57:17.251Z,6.37
2018-12-20T11:59:45.500Z,5.17
2018-12-20T12:02:13.647Z,5.07
2018-12-20T12:04:41.788Z,4.77
2018-12-20T12:07:10.046Z,5.03
2018-12-20T12:09:38.216Z,4.53
2018-12-20T12:12:11.541Z,4.10
2018-12-20T12:14:39.770Z,4.50
2018-12-20T12:17:09.203Z,3.60
2018-12-20T12:19:37.353Z,3.00
2018-12-20T12:22:05.591Z,3.20
2018-12-20T12:24:33.800Z,2.20
2018-12-20T12:27:02.037Z,2.70
2018-12-20T12:29:30.246Z,2.20
2018-12-20T12:31:58.465Z,2.20
2018-12-20T12:34:26.660Z,2.00
2018-12-20T12:36:55.445Z,2.13
2018-12-20T12:39:23.634Z,1.90
2018-12-20T12:41:51.773Z,1.80
2018-12-20T12:44:19.940Z,1.40
2018-12-20T12:46:48.216Z,1.20
2018-12-20T12:49:16.571Z,1.10
2018-12-20T12:51:52.898Z,1.40
2018-12-20T12:54:15.639Z,1.27
2018-12-20T12:56:43.936Z,1.57
2018-12-20T12:59:12.129Z,1.50
2018-12-20T13:01:40.317Z,1.33
2018-12-20T13:04:08.584Z,1.50
2018-12-20T13:06:36.842Z,1.77
2018-12-20T13:09:06.600Z,1.40
2018-12-20T13:11:34.880Z,1.20
2018-12-20T13:14:03.032Z,1.30
2018-12-20T13:16:31.375Z,1.60
2018-12-20T13:18:59.702Z,1.30
2018-12-20T13:21:27.983Z,1.40
2018-12-20T13:23:56.276Z,1.30
2018-12-20T13:26:24.558Z,1.57
2018-12-20T13:28:52.782Z,1.70
2018-12-20T13:31:20.959Z,2.40
2018-12-20T13:33:49.108Z,1.40
2018-12-20T13:36:17.543Z,1.60
2018-12-20T13:38:45.729Z,1.43
2018-12-20T13:41:13.896Z,1.40
2018-12-20T13:43:42.287Z,1.30
2018-12-20T13:46:10.460Z,1.60
2018-12-20T13:48:38.632Z,1.47
2018-12-20T13:51:06.886Z,1.40
2018-12-20T13:53:35.069Z,1.37
2018-12-20T13:56:03.318Z,1.47
2018-12-20T13:58:31.548Z,1.30
2018-12-20T14:01:00.076Z,1.63
2018-12-20T14:03:28.305Z,1.50
2018-12-20T14:05:56.558Z,1.53
2018-12-20T14:08:24.721Z,1.70
2018-12-20T14:10:52.863Z,1.50
2018-12-20T14:13:21.068Z,1.80
2018-12-20T14:15:49.222Z,2.03
2018-12-20T14:18:19.307Z,2.23
2018-12-20T14:20:47.435Z,1.90
2018-12-20T14:23:15.612Z,1.83
2018-12-20T14:25:43.902Z,1.97
2018-12-20T14:28:12.176Z,2.30
2018-12-20T14:30:40.394Z,2.80
2018-12-20T14:33:08.593Z,1.93
2018-12-20T14:35:36.806Z,2.63
2018-12-20T14:38:04.988Z,2.77
2018-12-20T14:40:33.164Z,2.70
2018-12-20T14:43:01.358Z,2.70
2018-12-20T14:45:29.524Z,2.03
2018-12-20T14:48:00.734Z,2.50
2018-12-20T14:50:29.067Z,3.00
2018-12-20T14:52:57.372Z,3.10
2018-12-20T14:55:25.671Z,1.80
2018-12-20T14:57:53.920Z,2.03
2018-12-20T15:00:22.280Z,2.03
2018-12-20T15:02:53.597Z,2.20
2018-12-20T15:05:21.740Z,2.10
2018-12-20T15:07:50.011Z,2.40
2018-12-20T15:10:18.300Z,1.87
2018-12-20T15:12:46.466Z,2.07
2018-12-20T15:15:14.611Z,2.07
2018-12-20T15:17:46.256Z,2.20
2018-12-20T15:20:14.512Z,2.47
2018-12-20T15:22:42.762Z,2.40
2018-12-20T15:25:10.925Z,2.63
2018-12-20T15:27:39.380Z,2.70
2018-12-20T15:30:09.308Z,2.30
2018-12-20T15:32:37.536Z,2.70
2018-12-20T15:35:07.171Z,2.47
2018-12-20T15:37:35.323Z,4.70
2018-12-20T15:40:04.656Z,2.53
2018-12-20T15:42:32.805Z,2.90
2018-12-20T15:45:01.061Z,2.87
2018-12-20T15:47:29.345Z,3.10
2018-12-20T15:49:58.686Z,2.93
2018-12-20T15:52:26.835Z,3.50
2018-12-20T15:54:55.005Z,7.47
2018-12-20T15:57:23.156Z,7.20
2018-12-20T15:59:51.300Z,7.80
2018-12-20T16:02:20.509Z,3.03
2018-12-20T16:04:49.467Z,3.17
2018-12-20T16:07:17.622Z,3.17
2018-12-20T16:09:45.792Z,20.37
2018-12-20T16:12:14.573Z,39.43
2018-12-20T16:14:42.781Z,4.13
2018-12-20T16:17:11.070Z,13.63
2018-12-20T16:19:39.224Z,9.00
2018-12-20T16:22:07.461Z,15.07
2018-12-20T16:24:35.688Z,35.37
2018-12-20T16:27:03.920Z,7.60
2018-12-20T16:29:32.140Z,12.90
2018-12-20T16:32:00.300Z,8.57
2018-12-20T16:34:28.454Z,10.93
2018-12-20T16:36:56.608Z,6.90
2018-12-20T16:39:24.891Z,3.60
2018-12-20T16:41:53.193Z,2.50
2018-12-20T16:44:21.404Z,7.63
2018-12-20T16:46:49.671Z,50.83
2018-12-20T16:49:17.820Z,6.93
2018-12-20T16:51:45.995Z,3.50
2018-12-20T16:54:14.329Z,3.00
2018-12-20T16:56:42.500Z,2.53
2018-12-20T16:59:10.665Z,3.13
2018-12-20T17:01:39.145Z,3.70
2018-12-20T17:04:07.272Z,61.43
2018-12-20T17:06:35.610Z,28.47
2018-12-20T17:09:05.204Z,9.97
2018-12-20T17:11:33.471Z,5.57
2018-12-20T17:14:02.624Z,12.37
2018-12-20T17:16:30.869Z,5.20
2018-12-20T17:18:59.049Z,2.20
2018-12-20T17:21:27.362Z,3.40
2018-12-20T17:23:55.568Z,3.17
2018-12-20T17:26:23.749Z,2.47
2018-12-20T17:28:51.887Z,1.90
2018-12-20T17:31:20.183Z,2.27
2018-12-20T17:33:48.336Z,1.80
2018-12-20T17:36:16.627Z,2.17
2018-12-20T17:38:44.796Z,2.80
2018-12-20T17:41:12.971Z,3.23
2018-12-20T17:43:41.227Z,3.70
2018-12-20T17:46:09.384Z,3.90
2018-12-20T17:48:37.868Z,3.13
2018-12-20T17:51:06.024Z,3.07
2018-12-20T17:53:34.182Z,3.10
2018-12-20T17:56:02.599Z,3.87
2018-12-20T17:58:30.807Z,3.90
2018-12-20T18:00:58.991Z,3.63
2018-12-20T18:03:27.315Z,6.33
2018-12-20T18:05:55.447Z,4.47
2018-12-20T18:08:23.602Z,4.80
2018-12-20T18:10:51.751Z,5.67
2018-12-20T18:13:20.001Z,5.13
2018-12-20T18:15:48.303Z,3.70
2018-12-20T18:18:16.455Z,3.30
2018-12-20T18:20:44.620Z,23.63
2018-12-20T18:23:12.797Z,6.30
2018-12-20T18:25:41.868Z,3.67
2018-12-20T18:28:10.032Z,3.50
2018-12-20T18:30:38.183Z,3.13
2018-12-20T18:33:06.357Z,3.17
2018-12-20T18:35:35.475Z,2.73
2018-12-20T18:38:03.819Z,6.27
2018-12-20T18:40:32.041Z,3.57
2018-12-20T18:43:04.190Z,3.60
2018-12-20T18:45:32.507Z,2.97
2018-12-20T18:48:00.656Z,3.30
2018-12-20T18:50:28.893Z,2.90
2018-12-20T18:52:57.068Z,3.67
2018-12-20T18:55:25.427Z,3.10
2018-12-20T18:57:53.532Z,2.87
2018-12-20T19:00:21.703Z,3.60
2018-12-20T19:02:49.887Z,2.93
2018-12-20T19:05:18.048Z,3.50
2018-12-20T19:07:46.207Z,3.53
2018-12-20T19:10:14.355Z,3.93
2018-12-20T19:12:42.498Z,3.47
2018-12-20T19:15:10.738Z,3.63
2018-12-20T19:17:38.937Z,3.70
2018-12-20T19:20:15.949Z,3.63
2018-12-20T19:22:39.675Z,6.60
2018-12-20T19:25:08.100Z,3.93
2018-12-20T19:27:38.137Z,3.53
2018-12-20T19:30:09.539Z,3.53
2018-12-20T19:32:37.796Z,3.67
2018-12-20T19:35:07.126Z,3.23
2018-12-20T19:37:36.181Z,3.53
2018-12-20T19:40:07.701Z,3.70
2018-12-20T19:42:35.977Z,3.77
2018-12-20T19:45:05.538Z,3.50
2018-12-20T19:47:33.710Z,3.73
2018-12-20T19:50:05.079Z,3.67
2018-12-20T19:52:32.086Z,3.73
2018-12-20T19:55:00.260Z,3.47
2018-12-20T19:57:28.448Z,3.00
2018-12-20T19:59:57.122Z,3.90
2018-12-20T20:02:26.284Z,3.67
2018-12-20T20:04:54.481Z,3.40
2018-12-20T20:07:23.934Z,4.23
2018-12-20T20:09:52.392Z,3.67
2018-12-20T20:12:20.550Z,3.97
2018-12-20T20:14:49.040Z,3.20
2018-12-20T20:17:17.629Z,3.83
2018-12-20T20:19:45.928Z,3.70
2018-12-20T20:22:15.080Z,3.70
2018-12-20T20:24:44.079Z,4.30
2018-12-20T20:27:12.259Z,3.47
2018-12-20T20:29:40.450Z,4.00
2018-12-20T20:32:08.700Z,3.60
2018-12-20T20:34:36.876Z,3.70
2018-12-20T20:37:05.135Z,3.93
2018-12-20T20:39:33.387Z,4.20
2018-12-20T20:42:02.174Z,4.00
2018-12-20T20:44:30.367Z,4.70
2018-12-20T20:46:59.498Z,4.67
2018-12-20T20:49:27.656Z,3.80
2018-12-20T20:51:55.968Z,3.83
2018-12-20T20:54:24.776Z,4.00
2018-12-20T20:56:52.919Z,3.80
2018-12-20T20:59:21.185Z,3.63
2018-12-20T21:01:49.338Z,3.80
2018-12-20T21:04:17.605Z,3.83
2018-12-20T21:06:47.095Z,3.90
2018-12-20T21:09:15.617Z,3.70
2018-12-20T21:11:43.828Z,6.93
2018-12-20T21:14:12.024Z,4.50
2018-12-20T21:16:40.232Z,4.00
2018-12-20T21:19:08.879Z,4.40
2018-12-20T21:21:37.647Z,3.80
2018-12-20T21:24:06.724Z,4.10
2018-12-20T21:26:35.208Z,4.20
2018-12-20T21:29:04.584Z,4.00
2018-12-20T21:31:33.219Z,4.10
2018-12-20T21:34:01.598Z,4.10
2018-12-20T21:36:30.245Z,4.20
2018-12-20T21:38:58.641Z,4.33
2018-12-20T21:41:26.847Z,3.90
2018-12-20T21:43:55.585Z,4.33
2018-12-20T21:46:24.302Z,4.63
2018-12-20T21:48:52.488Z,4.33
2018-12-20T21:51:20.993Z,4.93
2018-12-20T21:53:54.867Z,4.50
2018-12-20T21:56:20.796Z,5.07
2018-12-20T21:58:49.347Z,4.40
2018-12-20T22:01:19.564Z,4.50
2018-12-20T22:03:47.789Z,4.33
2018-12-20T22:06:16.438Z,3.77
2018-12-20T22:08:45.096Z,4.83
2018-12-20T22:11:13.855Z,3.90
2018-12-20T22:13:43.173Z,4.03
2018-12-20T22:16:11.836Z,3.47
2018-12-20T22:18:40.493Z,3.90
2018-12-20T22:21:09.959Z,3.60
2018-12-20T22:23:38.419Z,3.97
2018-12-20T22:26:06.871Z,3.60
2018-12-20T22:28:35.236Z,3.30
2018-12-20T22:31:03.703Z,2.97
2018-12-20T22:33:33.168Z,3.70
2018-12-20T22:36:01.470Z,3.33
2018-12-20T22:38:30.206Z,3.13
2018-12-20T22:40:58.497Z,3.87
2018-12-20T22:43:27.204Z,3.20
2018-12-20T22:45:55.786Z,3.53
2018-12-20T22:48:24.498Z,3.67
2018-12-20T22:50:56.034Z,3.50
2018-12-20T22:53:23.922Z,3.53
2018-12-20T22:55:52.096Z,3.50
2018-12-20T22:58:20.672Z,3.43
2018-12-20T23:00:55.656Z,2.83
2018-12-20T23:03:23.829Z,3.30
2018-12-20T23:05:52.071Z,3.50
2018-12-20T23:08:20.386Z,3.00
2018-12-20T23:10:48.594Z,3.10
2018-12-20T23:13:16.741Z,3.47
2018-12-20T23:15:44.884Z,4.00
2018-12-20T23:18:13.225Z,3.13
2018-12-20T23:20:41.505Z,3.40
2018-12-20T23:23:09.663Z,3.23
2018-12-20T23:25:37.886Z,3.43
2018-12-20T23:28:06.136Z,3.77
2018-12-20T23:30:35.125Z,3.23
2018-12-20T23:33:03.316Z,3.50
2018-12-20T23:35:31.543Z,3.40
2018-12-20T23:37:59.729Z,3.27
2018-12-20T23:40:27.888Z,3.30
2018-12-20T23:42:56.058Z,3.60
2018-12-20T23:45:24.214Z,3.60
2018-12-20T23:47:53.274Z,3.73
2018-12-20T23:50:22.165Z,3.10
2018-12-20T23:52:50.469Z,3.50
2018-12-20T23:55:18.620Z,3.10
2018-12-20T23:57:46.759Z,3.63
